createdAt,value
2023-03-10T00:00:49.400Z,7.20
2023-03-10T00:03:16.085Z,7.30
2023-03-10T00:05:42.915Z,9.30
2023-03-10T00:08:09.598Z,10.20
2023-03-10T00:10:36.398Z,8.90
2023-03-10T00:13:03.122Z,7.30
2023-03-10T00:15:29.967Z,7.40
2023-03-10T00:17:56.681Z,7.30
2023-03-10T00:20:23.636Z,7.40
2023-03-10T00:22:50.466Z,7.40
2023-03-10T00:25:17.305Z,7.40
2023-03-10T00:27:44.143Z,7.40
2023-03-10T00:30:11.094Z,7.40
2023-03-10T00:32:38.022Z,9.40
2023-03-10T00:35:06.030Z,7.40
2023-03-10T00:37:35.457Z,7.40
2023-03-10T00:40:02.245Z,7.40
2023-03-10T00:42:28.989Z,8.70
2023-03-10T00:44:55.756Z,7.30
2023-03-10T00:47:22.474Z,5.80
2023-03-10T00:49:49.317Z,7.20
2023-03-10T00:52:16.069Z,9.00
2023-03-10T00:54:42.896Z,7.20
2023-03-10T00:57:09.637Z,7.20
2023-03-10T00:59:49.432Z,7.20
2023-03-10T01:04:47.030Z,7.10
2023-03-10T01:07:13.804Z,7.10
2023-03-10T01:09:40.441Z,7.70
2023-03-10T01:12:07.274Z,7.00
2023-03-10T01:14:33.871Z,7.00
2023-03-10T01:17:00.485Z,9.10
2023-03-10T01:19:27.107Z,7.10
2023-03-10T01:21:53.708Z,7.10
2023-03-10T01:24:20.395Z,7.20
2023-03-10T01:26:47.082Z,7.20
2023-03-10T01:29:13.814Z,7.30
2023-03-10T01:31:41.873Z,7.40
2023-03-10T01:34:08.782Z,7.40
2023-03-10T01:36:35.523Z,7.50
2023-03-10T01:39:02.248Z,9.60
2023-03-10T01:41:28.876Z,7.60
2023-03-10T01:43:56.181Z,7.60
2023-03-10T01:46:35.780Z,7.60
2023-03-10T01:49:04.791Z,7.60
2023-03-10T01:51:33.308Z,7.70
2023-03-10T01:54:00.639Z,7.70
2023-03-10T01:56:27.261Z,10.40
2023-03-10T01:58:54.032Z,8.90
2023-03-10T02:01:21.786Z,8.40
2023-03-10T02:03:51.480Z,9.70
2023-03-10T02:06:19.865Z,7.70
2023-03-10T02:08:50.310Z,7.70
2023-03-10T02:11:17.563Z,7.60
2023-03-10T02:13:44.314Z,10.00
2023-03-10T02:16:11.219Z,7.80
2023-03-10T02:18:37.879Z,9.40
2023-03-10T02:21:04.562Z,7.90
2023-03-10T02:23:31.295Z,7.90
2023-03-10T02:26:05.213Z,7.90
2023-03-10T02:28:31.842Z,7.90
2023-03-10T02:30:58.564Z,7.90
2023-03-10T02:33:29.197Z,6.60
2023-03-10T02:36:02.161Z,7.80
2023-03-10T02:38:28.747Z,7.80
2023-03-10T02:40:57.291Z,7.80
2023-03-10T02:43:28.800Z,7.80
2023-03-10T02:45:57.217Z,7.70
2023-03-10T02:48:28.303Z,7.80
2023-03-10T02:50:55.643Z,7.70
2023-03-10T02:53:24.846Z,7.60
2023-03-10T02:55:52.062Z,7.70
2023-03-10T02:58:19.122Z,7.60
2023-03-10T03:00:46.520Z,8.60
2023-03-10T03:03:13.828Z,7.60
2023-03-10T03:05:40.886Z,9.00
2023-03-10T03:08:07.801Z,7.60
2023-03-10T03:10:34.780Z,7.60
2023-03-10T03:13:01.539Z,7.60
2023-03-10T03:15:28.390Z,8.20
2023-03-10T03:17:55.064Z,7.50
2023-03-10T03:20:21.706Z,7.60
2023-03-10T03:22:48.469Z,7.50
2023-03-10T03:25:16.618Z,7.50
2023-03-10T03:27:43.496Z,7.50
2023-03-10T03:30:15.169Z,7.40
2023-03-10T03:32:42.312Z,7.40
2023-03-10T03:35:10.218Z,7.40
2023-03-10T03:37:36.800Z,7.40
2023-03-10T03:40:12.722Z,7.50
2023-03-10T03:42:47.065Z,7.40
2023-03-10T03:45:15.209Z,7.40
2023-03-10T03:47:41.930Z,7.40
2023-03-10T03:50:09.947Z,7.30
2023-03-10T03:52:36.697Z,7.30
2023-03-10T03:55:04.247Z,7.30
2023-03-10T03:57:31.166Z,7.20
2023-03-10T03:59:57.833Z,7.30
2023-03-10T04:02:24.698Z,7.30
2023-03-10T04:04:52.986Z,7.30
2023-03-10T04:07:19.647Z,7.30
2023-03-10T04:09:46.629Z,7.20
2023-03-10T04:12:13.253Z,7.20
2023-03-10T04:14:39.923Z,7.20
2023-03-10T04:17:06.550Z,7.20
2023-03-10T04:19:33.197Z,7.10
2023-03-10T04:21:59.886Z,7.10
2023-03-10T04:24:26.564Z,8.40
2023-03-10T04:26:53.308Z,7.10
2023-03-10T04:29:24.378Z,7.10
2023-03-10T04:32:04.768Z,7.10
2023-03-10T04:34:32.359Z,8.20
2023-03-10T04:36:58.991Z,7.10
2023-03-10T04:39:25.636Z,7.20
2023-03-10T04:41:52.233Z,7.20
2023-03-10T04:44:30.523Z,7.30
2023-03-10T04:46:57.903Z,7.40
2023-03-10T04:49:24.669Z,9.30
2023-03-10T04:51:51.329Z,8.60
2023-03-10T04:54:18.051Z,7.30
2023-03-10T04:56:44.719Z,7.30
2023-03-10T04:59:11.411Z,7.10
2023-03-10T05:01:38.088Z,7.10
2023-03-10T05:04:05.349Z,7.20
2023-03-10T05:06:32.042Z,7.10
2023-03-10T05:08:58.737Z,7.10
2023-03-10T05:11:25.363Z,7.10
2023-03-10T05:13:52.246Z,7.10
2023-03-10T05:16:20.510Z,7.00
2023-03-10T05:18:47.506Z,7.00
2023-03-10T05:21:14.547Z,7.00
2023-03-10T05:23:41.492Z,8.10
2023-03-10T05:26:09.150Z,7.00
2023-03-10T05:28:36.261Z,7.10
2023-03-10T05:31:07.914Z,7.10
2023-03-10T05:33:34.571Z,6.50
2023-03-10T05:36:03.668Z,7.20
2023-03-10T05:38:30.326Z,7.20
2023-03-10T05:40:57.080Z,7.30
2023-03-10T05:43:23.716Z,7.40
2023-03-10T05:45:57.129Z,7.40
2023-03-10T05:48:23.936Z,7.40
2023-03-10T05:50:57.313Z,7.50
2023-03-10T05:53:25.486Z,7.50
2023-03-10T05:55:52.678Z,7.60
2023-03-10T05:58:19.331Z,7.50
2023-03-10T06:00:45.994Z,7.50
2023-03-10T06:03:12.748Z,7.50
2023-03-10T06:05:39.424Z,7.50
2023-03-10T06:08:06.099Z,7.40
2023-03-10T06:10:32.778Z,7.40
2023-03-10T06:12:59.493Z,7.40
2023-03-10T06:15:26.131Z,7.40
2023-03-10T06:17:52.771Z,7.40
2023-03-10T06:20:19.440Z,7.40
2023-03-10T06:22:46.145Z,7.30
2023-03-10T06:25:13.132Z,7.30
2023-03-10T06:27:39.782Z,7.30
2023-03-10T06:30:06.694Z,7.30
2023-03-10T06:32:34.347Z,7.20
2023-03-10T06:35:01.080Z,7.20
2023-03-10T06:37:28.166Z,7.10
2023-03-10T06:39:54.876Z,7.20
2023-03-10T06:42:21.446Z,7.20
2023-03-10T06:44:49.271Z,7.20
2023-03-10T06:47:16.013Z,7.20
2023-03-10T06:49:42.729Z,7.20
2023-03-10T06:52:09.319Z,7.30
2023-03-10T06:54:36.466Z,7.30
2023-03-10T06:57:04.303Z,7.40
2023-03-10T06:59:31.849Z,7.50
2023-03-10T07:01:58.488Z,7.50
2023-03-10T07:04:25.171Z,7.50
2023-03-10T07:06:51.922Z,7.50
2023-03-10T07:09:18.582Z,7.50
2023-03-10T07:11:45.342Z,7.50
2023-03-10T07:14:12.045Z,7.50
2023-03-10T07:16:39.610Z,7.50
2023-03-10T07:19:06.319Z,7.50
2023-03-10T07:21:33.060Z,7.50
2023-03-10T07:23:59.697Z,7.60
2023-03-10T07:26:26.508Z,7.60
2023-03-10T07:28:54.314Z,7.70
2023-03-10T07:31:21.259Z,7.70
2023-03-10T07:33:49.344Z,8.10
2023-03-10T07:36:17.541Z,7.70
2023-03-10T07:38:44.336Z,7.70
2023-03-10T07:41:12.159Z,7.80
2023-03-10T07:43:38.834Z,7.80
2023-03-10T07:46:06.759Z,7.90
2023-03-10T07:48:33.681Z,7.90
2023-03-10T07:51:00.508Z,7.90
2023-03-10T07:53:27.591Z,7.90
2023-03-10T07:55:54.511Z,7.60
2023-03-10T07:58:21.236Z,7.40
2023-03-10T08:00:53.709Z,7.30
2023-03-10T08:03:20.381Z,7.20
2023-03-10T08:05:47.464Z,7.10
2023-03-10T08:08:14.062Z,7.10
2023-03-10T08:10:40.713Z,7.00
2023-03-10T08:13:07.334Z,7.10
2023-03-10T08:15:34.052Z,7.10
2023-03-10T08:18:05.222Z,7.10
2023-03-10T08:20:35.474Z,7.10
2023-03-10T08:23:02.354Z,7.10
2023-03-10T08:25:28.972Z,7.10
2023-03-10T08:27:55.658Z,7.20
2023-03-10T08:30:22.310Z,7.20
2023-03-10T08:32:49.110Z,7.20
2023-03-10T08:35:16.862Z,7.30
2023-03-10T08:37:44.133Z,10.30
2023-03-10T08:40:12.071Z,7.70
2023-03-10T08:42:38.728Z,7.90
2023-03-10T08:45:08.395Z,8.20
2023-03-10T08:47:35.651Z,8.30
2023-03-10T08:50:02.358Z,8.40
2023-03-10T08:52:29.056Z,9.70
2023-03-10T08:54:57.101Z,8.50
2023-03-10T08:57:24.876Z,8.50
2023-03-10T08:59:54.652Z,8.60
2023-03-10T09:02:22.136Z,8.70
2023-03-10T09:04:49.162Z,8.80
2023-03-10T09:07:15.849Z,9.00
2023-03-10T09:09:42.535Z,9.00
2023-03-10T09:12:09.400Z,9.10
2023-03-10T09:14:36.723Z,9.10
2023-03-10T09:17:03.653Z,10.70
2023-03-10T09:19:30.396Z,9.50
2023-03-10T09:21:57.580Z,9.10
2023-03-10T09:24:24.579Z,9.20
2023-03-10T09:26:51.292Z,9.30
2023-03-10T09:29:17.921Z,9.30
2023-03-10T09:31:46.675Z,9.30
2023-03-10T09:34:13.816Z,11.30
2023-03-10T09:36:40.506Z,9.10
2023-03-10T09:39:07.181Z,9.00
2023-03-10T09:41:45.878Z,9.10
2023-03-10T09:44:31.522Z,9.00
2023-03-10T09:47:10.806Z,8.90
2023-03-10T09:49:38.350Z,9.00
2023-03-10T09:52:23.743Z,9.00
2023-03-10T09:55:09.758Z,9.00
2023-03-10T09:57:37.006Z,9.00
2023-03-10T10:00:08.733Z,9.10
2023-03-10T10:02:37.389Z,9.10
2023-03-10T10:05:11.040Z,9.20
2023-03-10T10:07:42.343Z,9.20
2023-03-10T10:10:15.161Z,9.20
2023-03-10T10:12:43.544Z,9.20
2023-03-10T10:15:22.318Z,9.30
2023-03-10T10:18:05.545Z,9.30
2023-03-10T10:20:50.092Z,9.30
2023-03-10T10:23:21.645Z,9.20
2023-03-10T10:25:50.372Z,9.30
2023-03-10T10:28:36.632Z,9.30
2023-03-10T10:31:10.295Z,9.30
2023-03-10T10:33:55.679Z,9.30
2023-03-10T10:36:24.569Z,9.40
2023-03-10T10:38:52.676Z,9.50
2023-03-10T10:41:25.111Z,8.40
2023-03-10T10:43:51.774Z,9.60
2023-03-10T10:46:25.958Z,9.60
2023-03-10T10:49:11.441Z,9.70
2023-03-10T10:51:38.731Z,9.50
2023-03-10T10:54:18.570Z,9.40
2023-03-10T10:56:52.303Z,9.40
2023-03-10T10:59:19.995Z,9.50
2023-03-10T11:01:46.824Z,9.60
2023-03-10T11:04:15.322Z,9.70
2023-03-10T11:06:43.160Z,9.60
2023-03-10T11:09:14.647Z,9.50
2023-03-10T11:11:41.305Z,9.30
2023-03-10T11:14:25.799Z,9.30
2023-03-10T11:17:02.370Z,9.30
2023-03-10T11:19:32.153Z,9.40
2023-03-10T11:22:16.968Z,9.40
2023-03-10T11:24:48.919Z,9.40
2023-03-10T11:27:15.556Z,9.40
2023-03-10T11:30:15.020Z,10.90
2023-03-10T11:32:59.441Z,9.40
2023-03-10T11:35:43.865Z,9.30
2023-03-10T11:38:18.108Z,9.30
2023-03-10T11:40:48.748Z,10.10
2023-03-10T11:43:27.633Z,9.40
2023-03-10T11:45:55.141Z,9.60
2023-03-10T11:48:41.569Z,11.10
2023-03-10T11:51:12.345Z,9.50
2023-03-10T11:53:50.375Z,9.60
2023-03-10T11:56:18.889Z,9.60
2023-03-10T11:58:45.455Z,9.70
2023-03-10T12:01:14.915Z,9.90
2023-03-10T12:03:49.178Z,11.00
2023-03-10T12:06:19.145Z,9.80
2023-03-10T12:08:46.658Z,9.90
2023-03-10T12:11:20.018Z,9.80
2023-03-10T12:13:48.533Z,9.70
2023-03-10T12:16:17.582Z,12.40
2023-03-10T12:18:44.308Z,9.60
2023-03-10T12:21:28.191Z,9.50
2023-03-10T12:23:56.022Z,9.50
2023-03-10T12:26:38.072Z,9.50
2023-03-10T12:29:24.962Z,9.50
2023-03-10T12:31:54.716Z,9.60
2023-03-10T12:34:22.774Z,9.50
2023-03-10T12:36:52.977Z,10.10
2023-03-10T12:39:28.712Z,9.60
2023-03-10T12:41:56.177Z,9.50
2023-03-10T12:44:23.057Z,10.60
2023-03-10T12:46:53.236Z,11.70
2023-03-10T12:49:33.113Z,9.40
2023-03-10T12:52:12.946Z,9.30
2023-03-10T12:54:58.399Z,9.10
2023-03-10T12:57:32.690Z,8.90
2023-03-10T13:00:13.408Z,8.70
2023-03-10T13:03:09.359Z,8.60
2023-03-10T13:05:41.453Z,8.60
2023-03-10T13:08:31.106Z,8.60
2023-03-10T13:10:59.026Z,8.80
2023-03-10T13:13:35.362Z,9.00
2023-03-10T13:16:03.191Z,9.10
2023-03-10T13:18:29.919Z,9.10
2023-03-10T13:20:59.589Z,9.10
2023-03-10T13:23:28.247Z,9.20
2023-03-10T13:25:56.091Z,11.80
2023-03-10T13:28:23.990Z,9.40
2023-03-10T13:30:50.725Z,9.70
2023-03-10T13:33:24.013Z,9.80
2023-03-10T13:35:52.432Z,9.90
2023-03-10T13:38:24.705Z,10.70
2023-03-10T13:40:57.560Z,11.40
2023-03-10T13:43:41.584Z,9.70
2023-03-10T13:46:15.294Z,9.50
2023-03-10T13:48:42.545Z,9.30
2023-03-10T13:51:12.167Z,9.30
2023-03-10T13:53:38.921Z,9.30
2023-03-10T13:56:16.977Z,9.40
2023-03-10T13:58:44.151Z,9.30
2023-03-10T14:01:15.981Z,9.10
2023-03-10T14:03:59.999Z,9.00
2023-03-10T14:06:27.757Z,8.90
2023-03-10T14:08:54.532Z,8.90
2023-03-10T14:11:32.513Z,10.50
2023-03-10T14:14:00.266Z,8.90
2023-03-10T14:16:45.667Z,8.90
2023-03-10T14:19:12.453Z,8.90
2023-03-10T14:21:52.448Z,9.00
2023-03-10T14:24:27.978Z,9.00
2023-03-10T14:26:55.449Z,9.10
2023-03-10T14:29:22.085Z,10.60
2023-03-10T14:31:52.243Z,9.00
2023-03-10T14:34:18.994Z,9.10
2023-03-10T14:36:45.767Z,9.20
2023-03-10T14:39:12.556Z,9.30
2023-03-10T14:41:39.187Z,9.20
2023-03-10T14:44:05.960Z,9.20
2023-03-10T14:46:35.134Z,9.30
2023-03-10T14:49:02.241Z,9.30
2023-03-10T14:51:35.691Z,11.10
2023-03-10T14:54:03.536Z,11.90
2023-03-10T14:56:31.102Z,8.90
2023-03-10T14:59:02.153Z,8.00
2023-03-10T15:01:29.427Z,11.10
2023-03-10T15:03:56.390Z,8.50
2023-03-10T15:06:23.072Z,8.40
2023-03-10T15:08:49.789Z,8.40
2023-03-10T15:11:24.085Z,8.20
2023-03-10T15:13:53.738Z,8.20
2023-03-10T15:16:20.607Z,8.20
2023-03-10T15:18:49.255Z,8.00
2023-03-10T15:21:16.046Z,7.80
2023-03-10T15:23:42.841Z,7.80
2023-03-10T15:26:13.048Z,7.70
2023-03-10T15:28:40.159Z,7.60
2023-03-10T15:31:06.911Z,7.50
2023-03-10T15:33:33.699Z,7.40
2023-03-10T15:36:00.432Z,7.30
2023-03-10T15:38:28.935Z,7.10
2023-03-10T15:40:56.980Z,7.00
2023-03-10T15:43:23.746Z,7.80
2023-03-10T15:45:51.087Z,6.80
2023-03-10T15:48:18.023Z,6.80
2023-03-10T15:50:47.227Z,6.80
2023-03-10T15:53:14.271Z,6.80
2023-03-10T15:55:41.751Z,6.80
2023-03-10T15:58:09.625Z,6.90
2023-03-10T16:00:36.501Z,8.60
2023-03-10T16:03:03.183Z,6.90
2023-03-10T16:05:29.862Z,6.90
2023-03-10T16:07:56.565Z,6.90
2023-03-10T16:10:23.338Z,6.90
2023-03-10T16:12:50.097Z,6.90
2023-03-10T16:15:18.399Z,6.80
2023-03-10T16:17:45.508Z,6.80
2023-03-10T16:20:17.073Z,6.80
2023-03-10T16:22:43.797Z,6.70
2023-03-10T16:25:12.783Z,6.80
2023-03-10T16:27:39.497Z,7.40
2023-03-10T16:30:06.644Z,6.60
2023-03-10T16:32:33.963Z,6.50
2023-03-10T16:35:00.750Z,6.90
2023-03-10T16:37:28.232Z,6.40
2023-03-10T16:39:55.661Z,6.60
2023-03-10T16:42:22.846Z,6.20
2023-03-10T16:44:49.643Z,6.10
2023-03-10T16:47:18.003Z,6.10
2023-03-10T16:49:44.778Z,6.00
2023-03-10T16:52:11.456Z,6.00
2023-03-10T16:54:38.481Z,6.00
2023-03-10T16:57:06.632Z,6.00
2023-03-10T16:59:33.585Z,5.90
2023-03-10T17:02:00.326Z,5.90
2023-03-10T17:04:28.123Z,5.90
2023-03-10T17:06:54.858Z,5.80
2023-03-10T17:09:21.628Z,5.70
2023-03-10T17:11:54.864Z,5.60
2023-03-10T17:14:22.123Z,5.50
2023-03-10T17:16:48.958Z,5.40
2023-03-10T17:19:20.320Z,5.30
2023-03-10T17:21:48.802Z,5.20
2023-03-10T17:24:16.392Z,5.10
2023-03-10T17:26:43.132Z,7.60
2023-03-10T17:29:09.866Z,5.00
2023-03-10T17:31:36.702Z,4.80
2023-03-10T17:34:05.643Z,4.80
2023-03-10T17:36:32.724Z,4.80
2023-03-10T17:39:00.288Z,4.70
2023-03-10T17:41:27.979Z,4.80
2023-03-10T17:43:55.239Z,4.80
2023-03-10T17:46:24.253Z,4.90
2023-03-10T17:48:51.981Z,4.90
2023-03-10T17:51:25.785Z,6.10
2023-03-10T17:53:53.573Z,4.90
2023-03-10T17:56:22.016Z,5.00
2023-03-10T17:58:49.069Z,5.00
2023-03-10T18:01:17.062Z,5.70
2023-03-10T18:03:46.347Z,5.00
2023-03-10T18:06:14.960Z,4.90
2023-03-10T18:08:42.119Z,4.90
2023-03-10T18:11:09.040Z,4.90
2023-03-10T18:13:35.996Z,4.80
2023-03-10T18:16:02.848Z,4.80
2023-03-10T18:18:29.552Z,4.70
2023-03-10T18:20:56.394Z,4.70
2023-03-10T18:23:23.474Z,4.60
2023-03-10T18:25:50.797Z,4.50
2023-03-10T18:28:19.282Z,4.40
2023-03-10T18:30:49.766Z,4.30
2023-03-10T18:33:16.550Z,4.30
2023-03-10T18:35:44.721Z,4.30
2023-03-10T18:38:12.281Z,4.30
2023-03-10T18:40:39.146Z,4.30
2023-03-10T18:43:05.866Z,4.30
2023-03-10T18:45:32.607Z,4.30
2023-03-10T18:47:59.350Z,4.30
2023-03-10T18:50:26.125Z,4.30
2023-03-10T18:52:52.813Z,4.30
2023-03-10T18:55:19.547Z,4.30
2023-03-10T18:57:46.344Z,4.30
2023-03-10T19:00:14.771Z,4.20
2023-03-10T19:02:42.393Z,4.20
2023-03-10T19:05:16.096Z,4.00
2023-03-10T19:07:42.772Z,4.10
2023-03-10T19:10:11.990Z,4.10
2023-03-10T19:12:38.641Z,4.10
2023-03-10T19:15:08.993Z,4.10
2023-03-10T19:17:37.393Z,4.10
2023-03-10T19:20:05.673Z,4.10
2023-03-10T19:22:34.207Z,4.10
2023-03-10T19:25:01.554Z,4.20
2023-03-10T19:27:28.237Z,4.20
2023-03-10T19:29:55.000Z,4.20
2023-03-10T19:32:21.795Z,4.20
2023-03-10T19:34:48.696Z,4.20
2023-03-10T19:37:15.368Z,4.20
2023-03-10T19:39:42.127Z,4.20
2023-03-10T19:42:08.844Z,4.20
2023-03-10T19:44:37.795Z,4.10
2023-03-10T19:47:04.720Z,4.10
2023-03-10T19:49:34.280Z,4.10
2023-03-10T19:52:01.210Z,4.20
2023-03-10T19:54:27.966Z,4.20
2023-03-10T19:56:54.578Z,4.20
2023-03-10T19:59:21.247Z,4.20
2023-03-10T20:01:49.428Z,4.20
2023-03-10T20:04:16.316Z,4.10
2023-03-10T20:06:43.078Z,4.10
2023-03-10T20:09:10.673Z,4.10
2023-03-10T20:11:38.757Z,4.10
2023-03-10T20:14:05.875Z,4.00
2023-03-10T20:16:32.840Z,4.00
2023-03-10T20:18:59.570Z,4.00
2023-03-10T20:21:26.698Z,4.00
2023-03-10T20:23:56.007Z,3.90
2023-03-10T20:26:23.184Z,3.80
2023-03-10T20:28:49.914Z,3.70
2023-03-10T20:31:18.132Z,3.70
2023-03-10T20:33:45.143Z,3.70
2023-03-10T20:36:15.411Z,3.60
2023-03-10T20:38:44.220Z,3.50
2023-03-10T20:41:12.657Z,3.50
2023-03-10T20:43:40.125Z,5.00
2023-03-10T20:46:07.340Z,3.50
2023-03-10T20:48:34.756Z,3.40
2023-03-10T20:51:02.973Z,3.40
2023-03-10T20:53:33.138Z,3.40
2023-03-10T20:56:00.421Z,3.30
2023-03-10T20:58:27.353Z,3.30
2023-03-10T21:00:54.082Z,3.30
2023-03-10T21:03:21.738Z,3.20
2023-03-10T21:05:48.639Z,3.20
2023-03-10T21:08:15.645Z,3.20
2023-03-10T21:10:44.562Z,3.10
2023-03-10T21:13:11.555Z,3.10
2023-03-10T21:15:38.812Z,3.10
2023-03-10T21:18:05.500Z,3.10
2023-03-10T21:20:32.157Z,3.10
2023-03-10T21:22:58.878Z,3.10
2023-03-10T21:25:25.868Z,3.00
2023-03-10T21:27:53.618Z,3.00
2023-03-10T21:30:21.351Z,2.90
2023-03-10T21:32:48.008Z,2.90
2023-03-10T21:35:14.753Z,2.80
2023-03-10T21:37:42.368Z,2.80
2023-03-10T21:40:09.755Z,2.70
2023-03-10T21:42:36.864Z,2.70
2023-03-10T21:45:07.072Z,2.70
2023-03-10T21:47:34.105Z,2.60
2023-03-10T21:50:00.758Z,2.60
2023-03-10T21:52:27.590Z,2.50
2023-03-10T21:54:54.344Z,2.50
2023-03-10T21:57:21.052Z,2.50
2023-03-10T21:59:47.712Z,2.40
2023-03-10T22:02:22.858Z,2.50
2023-03-10T22:04:49.582Z,2.50
2023-03-10T22:07:16.171Z,2.60
2023-03-10T22:09:42.975Z,2.60
2023-03-10T22:12:10.024Z,2.60
2023-03-10T22:14:36.795Z,2.50
2023-03-10T22:17:03.438Z,2.40
2023-03-10T22:19:30.115Z,2.40
2023-03-10T22:21:56.844Z,2.30
2023-03-10T22:24:23.546Z,2.30
2023-03-10T22:26:50.161Z,2.20
2023-03-10T22:29:16.883Z,2.20
2023-03-10T22:31:43.615Z,2.20
2023-03-10T22:34:10.230Z,2.10
2023-03-10T22:36:36.869Z,2.20
2023-03-10T22:39:03.605Z,3.90
2023-03-10T22:41:30.221Z,2.00
2023-03-10T22:43:56.843Z,1.90
2023-03-10T22:46:23.520Z,1.90
2023-03-10T22:48:50.193Z,1.90
2023-03-10T22:51:17.756Z,1.80
2023-03-10T22:53:48.737Z,1.80
2023-03-10T22:56:16.098Z,1.80
2023-03-10T22:58:42.785Z,1.80
2023-03-10T23:01:09.473Z,1.90
2023-03-10T23:03:36.143Z,1.90
2023-03-10T23:06:03.768Z,2.00
2023-03-10T23:08:30.383Z,2.00
2023-03-10T23:10:57.127Z,2.00
2023-03-10T23:13:23.787Z,2.00
2023-03-10T23:15:50.352Z,2.10
2023-03-10T23:18:16.975Z,2.00
2023-03-10T23:20:44.937Z,1.90
2023-03-10T23:23:12.863Z,1.90
2023-03-10T23:25:40.709Z,1.80
2023-03-10T23:28:08.253Z,1.80
2023-03-10T23:30:35.809Z,1.80
2023-03-10T23:33:02.856Z,1.70
2023-03-10T23:35:33.092Z,1.70
2023-03-10T23:38:00.518Z,1.70
2023-03-10T23:40:28.356Z,1.60
2023-03-10T23:42:55.756Z,1.60
2023-03-10T23:45:23.228Z,1.60
2023-03-10T23:47:50.397Z,1.50
2023-03-10T23:50:19.164Z,1.50
2023-03-10T23:52:46.133Z,1.50
2023-03-10T23:55:14.415Z,1.40
2023-03-10T23:57:41.129Z,1.30
